createdAt,value
2017-05-01T00:01:04.802Z,8.80
2017-05-01T00:03:33.149Z,8.90
2017-05-01T00:06:01.369Z,8.80
2017-05-01T00:08:29.752Z,8.80
2017-05-01T00:10:57.999Z,8.70
2017-05-01T00:13:26.220Z,8.70
2017-05-01T00:15:55.222Z,8.60
2017-05-01T00:18:23.496Z,8.70
2017-05-01T00:20:52.489Z,8.60
2017-05-01T00:23:21.464Z,8.60
2017-05-01T00:25:50.524Z,8.50
2017-05-01T00:28:18.748Z,8.50
2017-05-01T00:30:47.712Z,8.50
2017-05-01T00:33:15.968Z,8.50
2017-05-01T00:35:44.297Z,8.50
2017-05-01T00:38:12.526Z,8.40
2017-05-01T00:40:40.869Z,8.40
2017-05-01T00:43:09.122Z,8.40
2017-05-01T00:45:37.368Z,8.30
2017-05-01T00:48:05.668Z,8.30
2017-05-01T00:50:34.758Z,8.20
2017-05-01T00:53:03.752Z,8.20
2017-05-01T00:55:32.745Z,8.20
2017-05-01T00:58:01.710Z,8.10
2017-05-01T01:00:29.944Z,8.20
2017-05-01T01:02:58.201Z,8.20
2017-05-01T01:05:26.459Z,8.20
2017-05-01T01:07:55.467Z,8.10
2017-05-01T01:10:29.432Z,8.10
2017-05-01T01:12:57.675Z,8.00
2017-05-01T01:15:25.936Z,8.10
2017-05-01T01:17:54.305Z,8.00
2017-05-01T01:20:22.544Z,8.00
2017-05-01T01:22:50.777Z,8.00
2017-05-01T01:25:19.025Z,8.00
2017-05-01T01:27:47.292Z,8.00
2017-05-01T01:30:15.596Z,7.90
2017-05-01T01:32:43.845Z,7.90
2017-05-01T01:35:12.084Z,7.90
2017-05-01T01:37:40.393Z,7.90
2017-05-01T01:40:08.640Z,7.80
2017-05-01T01:42:36.860Z,7.80
2017-05-01T01:45:05.153Z,7.80
2017-05-01T01:47:33.402Z,7.90
2017-05-01T01:50:01.672Z,7.70
2017-05-01T01:52:29.919Z,7.80
2017-05-01T01:54:58.159Z,7.80
2017-05-01T01:57:26.382Z,7.80
2017-05-01T01:59:55.360Z,7.70
2017-05-01T02:02:23.606Z,7.80
2017-05-01T02:04:51.831Z,7.70
2017-05-01T02:07:20.062Z,7.70
2017-05-01T02:09:48.311Z,7.60
2017-05-01T02:12:16.547Z,7.60
2017-05-01T02:14:45.555Z,7.50
2017-05-01T02:17:13.837Z,7.50
2017-05-01T02:19:42.060Z,7.60
2017-05-01T02:22:10.300Z,7.60
2017-05-01T02:24:38.690Z,7.60
2017-05-01T02:27:07.032Z,7.60
2017-05-01T02:29:35.264Z,7.70
2017-05-01T02:32:03.516Z,7.70
2017-05-01T02:34:31.844Z,7.70
2017-05-01T02:37:00.811Z,7.70
2017-05-01T02:39:29.068Z,7.70
2017-05-01T02:41:57.401Z,7.70
2017-05-01T02:44:25.626Z,7.70
2017-05-01T02:46:53.918Z,7.80
2017-05-01T02:49:22.220Z,7.80
2017-05-01T02:51:51.218Z,7.80
2017-05-01T02:54:19.530Z,7.80
2017-05-01T02:56:47.814Z,7.80
2017-05-01T02:59:16.091Z,7.70
2017-05-01T03:01:44.356Z,7.70
2017-05-01T03:04:12.577Z,7.70
2017-05-01T03:06:41.592Z,7.70
2017-05-01T03:09:09.848Z,7.80
2017-05-01T03:11:38.855Z,7.70
2017-05-01T03:14:07.095Z,7.70
2017-05-01T03:16:35.393Z,7.70
2017-05-01T03:19:04.356Z,7.60
2017-05-01T03:21:32.675Z,7.70
2017-05-01T03:24:00.936Z,7.60
2017-05-01T03:26:29.928Z,7.50
2017-05-01T03:28:59.070Z,7.50
2017-05-01T03:31:27.329Z,7.60
2017-05-01T03:33:55.558Z,7.50
2017-05-01T03:36:23.863Z,7.50
2017-05-01T03:38:52.135Z,7.50
2017-05-01T03:41:20.372Z,7.50
2017-05-01T03:43:48.673Z,7.40
2017-05-01T03:46:17.776Z,7.30
2017-05-01T03:48:46.005Z,7.30
2017-05-01T03:51:14.231Z,7.30
2017-05-01T03:53:42.507Z,7.30
2017-05-01T03:56:10.756Z,7.30
2017-05-01T03:58:38.972Z,7.30
2017-05-01T04:01:07.224Z,7.30
2017-05-01T04:03:35.496Z,7.30
2017-05-01T04:06:04.456Z,7.20
2017-05-01T04:08:32.722Z,7.30
2017-05-01T04:11:01.039Z,7.20
2017-05-01T04:13:30.033Z,7.10
2017-05-01T04:15:58.312Z,7.20
2017-05-01T04:18:26.561Z,7.20
2017-05-01T04:20:55.533Z,7.20
2017-05-01T04:23:23.799Z,7.20
2017-05-01T04:25:52.028Z,7.20
2017-05-01T04:28:20.243Z,7.20
2017-05-01T04:30:48.493Z,7.30
2017-05-01T04:33:16.728Z,7.30
2017-05-01T04:35:45.021Z,7.30
2017-05-01T04:38:14.101Z,7.20
2017-05-01T04:40:43.108Z,7.20
2017-05-01T04:43:12.110Z,7.20
2017-05-01T04:45:40.375Z,7.30
2017-05-01T04:48:09.372Z,7.30
2017-05-01T04:50:37.640Z,7.40
2017-05-01T04:53:06.637Z,7.30
2017-05-01T04:55:35.613Z,7.40
2017-05-01T04:58:04.587Z,7.40
2017-05-01T05:00:32.887Z,7.40
2017-05-01T05:03:01.863Z,7.40
2017-05-01T05:05:30.876Z,7.50
2017-05-01T05:07:59.865Z,7.50
2017-05-01T05:10:28.840Z,7.40
2017-05-01T05:12:57.123Z,7.50
2017-05-01T05:15:25.401Z,7.50
2017-05-01T05:17:54.401Z,7.50
2017-05-01T05:20:23.396Z,7.60
2017-05-01T05:22:52.388Z,7.70
2017-05-01T05:25:21.385Z,7.80
2017-05-01T05:27:50.362Z,7.90
2017-05-01T05:30:19.358Z,8.00
2017-05-01T05:32:48.335Z,8.00
2017-05-01T05:35:16.579Z,8.10
2017-05-01T05:37:44.823Z,8.10
2017-05-01T05:40:13.066Z,8.10
2017-05-01T05:42:41.376Z,8.20
2017-05-01T05:45:09.646Z,8.20
2017-05-01T05:47:37.883Z,8.30
2017-05-01T05:50:06.164Z,8.30
2017-05-01T05:52:34.413Z,8.30
2017-05-01T05:55:02.792Z,8.40
2017-05-01T05:57:31.008Z,8.50
2017-05-01T06:00:00.008Z,8.50
2017-05-01T06:02:28.271Z,8.60
2017-05-01T06:04:57.381Z,8.50
2017-05-01T06:07:25.759Z,8.60
2017-05-01T06:09:54.023Z,8.70
2017-05-01T06:12:23.003Z,8.60
2017-05-01T06:14:51.272Z,8.70
2017-05-01T06:17:19.510Z,8.80
2017-05-01T06:19:47.840Z,8.80
2017-05-01T06:22:16.836Z,8.80
2017-05-01T06:24:45.814Z,8.80
2017-05-01T06:27:14.817Z,8.90
2017-05-01T06:29:43.800Z,8.90
2017-05-01T06:32:12.772Z,9.00
2017-05-01T06:34:41.005Z,9.10
2017-05-01T06:37:09.267Z,9.20
2017-05-01T06:39:37.539Z,9.20
2017-05-01T06:42:05.801Z,9.20
2017-05-01T06:44:34.888Z,9.40
2017-05-01T06:47:03.859Z,9.30
2017-05-01T06:49:32.177Z,9.40
2017-05-01T06:52:00.426Z,9.50
2017-05-01T06:54:29.401Z,9.50
2017-05-01T06:56:57.631Z,9.70
2017-05-01T06:59:25.877Z,9.70
2017-05-01T07:01:54.863Z,9.80
2017-05-01T07:04:23.836Z,9.80
2017-05-01T07:06:52.102Z,9.90
2017-05-01T07:09:21.132Z,9.90
2017-05-01T07:11:49.416Z,10.00
2017-05-01T07:14:17.692Z,10.00
2017-05-01T07:16:45.930Z,10.10
2017-05-01T07:19:14.175Z,10.20
2017-05-01T07:21:42.418Z,10.20
2017-05-01T07:24:10.653Z,10.30
2017-05-01T07:26:38.971Z,10.40
2017-05-01T07:29:07.233Z,10.40
2017-05-01T07:31:36.213Z,10.40
2017-05-01T07:34:05.221Z,10.60
2017-05-01T07:36:33.490Z,10.70
2017-05-01T07:39:02.484Z,10.70
2017-05-01T07:41:30.802Z,10.90
2017-05-01T07:43:59.152Z,11.00
2017-05-01T07:46:27.414Z,11.20
2017-05-01T07:48:55.648Z,11.30
2017-05-01T07:51:23.924Z,11.40
2017-05-01T07:53:52.251Z,11.50
2017-05-01T07:56:20.497Z,11.60
2017-05-01T07:58:48.815Z,11.80
2017-05-01T08:01:17.113Z,11.80
2017-05-01T08:03:45.347Z,11.80
2017-05-01T08:06:13.628Z,11.90
2017-05-01T08:08:41.894Z,12.00
2017-05-01T08:11:10.210Z,12.00
2017-05-01T08:13:38.556Z,12.10
2017-05-01T08:16:07.170Z,12.30
2017-05-01T08:18:35.429Z,12.40
2017-05-01T08:21:03.710Z,12.40
2017-05-01T08:23:31.938Z,12.50
2017-05-01T08:26:00.928Z,12.60
2017-05-01T08:28:29.932Z,12.50
2017-05-01T08:30:58.935Z,12.60
2017-05-01T08:33:27.218Z,12.80
2017-05-01T08:35:55.479Z,12.90
2017-05-01T08:38:23.725Z,13.10
2017-05-01T08:40:51.956Z,13.20
2017-05-01T08:43:20.225Z,13.30
2017-05-01T08:45:48.526Z,13.40
2017-05-01T08:48:16.766Z,13.40
2017-05-01T08:50:45.113Z,13.50
2017-05-01T08:53:13.759Z,13.50
2017-05-01T08:55:42.034Z,13.50
2017-05-01T08:58:10.288Z,13.40
2017-05-01T09:00:38.523Z,13.50
2017-05-01T09:03:07.549Z,13.50
2017-05-01T09:05:35.850Z,13.70
2017-05-01T09:08:04.192Z,13.70
2017-05-01T09:10:32.483Z,13.90
2017-05-01T09:13:00.841Z,14.00
2017-05-01T09:15:29.096Z,14.10
2017-05-01T09:17:58.079Z,14.10
2017-05-01T09:20:26.358Z,14.30
2017-05-01T09:22:54.595Z,14.50
2017-05-01T09:25:22.945Z,14.70
2017-05-01T09:27:51.315Z,14.60
2017-05-01T09:30:19.553Z,14.70
2017-05-01T09:32:47.801Z,14.90
2017-05-01T09:35:16.097Z,14.90
2017-05-01T09:37:44.401Z,15.10
2017-05-01T09:40:13.421Z,15.10
2017-05-01T09:42:41.799Z,15.10
2017-05-01T09:45:10.039Z,15.00
2017-05-01T09:47:39.060Z,14.90
2017-05-01T09:50:07.336Z,14.90
2017-05-01T09:52:35.653Z,15.00
2017-05-01T09:55:03.900Z,15.20
2017-05-01T09:57:32.191Z,15.30
2017-05-01T10:00:00.483Z,15.30
2017-05-01T10:02:28.719Z,15.30
2017-05-01T10:04:57.021Z,15.40
2017-05-01T10:07:25.256Z,15.50
2017-05-01T10:09:53.519Z,15.40
2017-05-01T10:12:22.518Z,15.20
2017-05-01T10:14:50.845Z,15.40
2017-05-01T10:17:19.123Z,15.60
2017-05-01T10:19:47.524Z,15.60
2017-05-01T10:22:15.837Z,15.70
2017-05-01T10:24:44.113Z,15.90
2017-05-01T10:27:12.384Z,16.00
2017-05-01T10:29:40.652Z,16.00
2017-05-01T10:32:08.929Z,16.00
2017-05-01T10:34:37.210Z,16.20
2017-05-01T10:37:05.484Z,16.20
2017-05-01T10:39:33.950Z,16.20
2017-05-01T10:42:02.274Z,16.20
2017-05-01T10:44:30.554Z,16.30
2017-05-01T10:46:58.812Z,16.30
2017-05-01T10:49:27.083Z,16.40
2017-05-01T10:51:55.344Z,16.50
2017-05-01T10:54:23.582Z,16.40
2017-05-01T10:56:51.894Z,16.50
2017-05-01T10:59:20.133Z,16.50
2017-05-01T11:01:49.106Z,16.60
2017-05-01T11:04:17.421Z,17.00
2017-05-01T11:06:46.397Z,17.00
2017-05-01T11:09:15.409Z,17.10
2017-05-01T11:11:43.666Z,17.30
2017-05-01T11:14:12.680Z,17.20
2017-05-01T11:16:40.911Z,17.20
2017-05-01T11:19:09.168Z,17.10
2017-05-01T11:21:37.500Z,17.30
2017-05-01T11:24:05.769Z,17.40
2017-05-01T11:26:34.769Z,17.40
2017-05-01T11:29:03.188Z,17.20
2017-05-01T11:31:31.432Z,17.20
2017-05-01T11:33:59.728Z,17.10
2017-05-01T11:36:27.959Z,17.00
2017-05-01T11:38:56.703Z,17.00
2017-05-01T11:41:24.979Z,17.20
2017-05-01T11:43:53.313Z,17.40
2017-05-01T11:46:21.592Z,17.50
2017-05-01T11:48:49.969Z,17.70
2017-05-01T11:51:18.246Z,17.80
2017-05-01T11:53:46.521Z,18.00
2017-05-01T11:56:14.796Z,18.00
2017-05-01T11:58:43.032Z,18.30
2017-05-01T12:01:11.344Z,18.40
2017-05-01T12:03:39.612Z,18.30
2017-05-01T12:06:08.665Z,18.20
2017-05-01T12:08:36.984Z,18.00
2017-05-01T12:11:06.071Z,18.10
2017-05-01T12:13:35.072Z,18.00
2017-05-01T12:16:03.314Z,18.20
2017-05-01T12:18:31.568Z,18.40
2017-05-01T12:20:59.995Z,18.30
2017-05-01T12:23:28.970Z,18.10
2017-05-01T12:25:58.004Z,17.90
2017-05-01T12:28:26.231Z,17.80
2017-05-01T12:30:54.547Z,17.80
2017-05-01T12:33:22.910Z,17.80
2017-05-01T12:35:51.902Z,17.90
2017-05-01T12:38:20.283Z,17.90
2017-05-01T12:40:48.538Z,17.80
2017-05-01T12:43:16.771Z,17.90
2017-05-01T12:45:45.073Z,17.90
2017-05-01T12:48:13.586Z,17.80
2017-05-01T12:50:42.562Z,17.70
2017-05-01T12:53:11.545Z,17.60
2017-05-01T12:55:39.843Z,17.60
2017-05-01T12:58:08.977Z,17.60
2017-05-01T13:00:37.336Z,17.80
2017-05-01T13:03:05.691Z,17.90
2017-05-01T13:05:34.801Z,17.70
2017-05-01T13:08:03.031Z,17.60
2017-05-01T13:10:31.292Z,17.60
2017-05-01T13:12:59.539Z,17.90
2017-05-01T13:15:27.890Z,18.00
2017-05-01T13:17:56.266Z,18.20
2017-05-01T13:20:25.241Z,18.20
2017-05-01T13:22:53.480Z,18.20
2017-05-01T13:25:21.733Z,18.40
2017-05-01T13:27:49.980Z,18.40
2017-05-01T13:30:18.981Z,18.30
2017-05-01T13:32:47.252Z,18.30
2017-05-01T13:35:16.349Z,18.00
2017-05-01T13:37:44.639Z,17.90
2017-05-01T13:40:12.904Z,17.80
2017-05-01T13:42:41.186Z,17.80
2017-05-01T13:45:09.453Z,17.90
2017-05-01T13:47:37.723Z,18.00
2017-05-01T13:50:06.724Z,18.00
2017-05-01T13:52:34.983Z,18.00
2017-05-01T13:55:04.028Z,17.80
2017-05-01T13:57:32.302Z,17.80
2017-05-01T14:00:00.581Z,17.70
2017-05-01T14:02:28.967Z,17.60
2017-05-01T14:04:57.245Z,17.50
2017-05-01T14:07:25.701Z,17.50
2017-05-01T14:09:53.967Z,17.40
2017-05-01T14:12:22.224Z,17.30
2017-05-01T14:14:50.470Z,17.20
2017-05-01T14:17:18.732Z,17.30
2017-05-01T14:19:46.962Z,17.30
2017-05-01T14:22:15.249Z,17.30
2017-05-01T14:24:43.496Z,17.20
2017-05-01T14:27:11.772Z,17.10
2017-05-01T14:29:40.022Z,17.10
2017-05-01T14:32:08.321Z,17.00
2017-05-01T14:34:36.571Z,16.80
2017-05-01T14:37:04.890Z,16.70
2017-05-01T14:39:33.249Z,16.60
2017-05-01T14:42:01.505Z,16.70
2017-05-01T14:44:29.760Z,16.70
2017-05-01T14:46:58.011Z,16.80
2017-05-01T14:49:26.979Z,16.80
2017-05-01T14:51:55.285Z,16.90
2017-05-01T14:54:23.556Z,16.90
2017-05-01T14:56:51.840Z,16.80
2017-05-01T14:59:20.069Z,16.80
2017-05-01T15:01:48.385Z,16.70
2017-05-01T15:04:16.762Z,16.60
2017-05-01T15:06:45.068Z,16.50
2017-05-01T15:09:13.368Z,16.40
2017-05-01T15:11:41.687Z,16.30
2017-05-01T15:14:09.920Z,16.30
2017-05-01T15:16:38.217Z,16.40
2017-05-01T15:19:06.472Z,16.50
2017-05-01T15:21:34.728Z,16.40
2017-05-01T15:24:03.164Z,16.50
2017-05-01T15:26:32.201Z,16.60
2017-05-01T15:29:00.423Z,16.70
2017-05-01T15:31:29.528Z,16.60
2017-05-01T15:33:56.993Z,16.70
2017-05-01T15:36:25.293Z,16.70
2017-05-01T15:38:54.361Z,16.50
2017-05-01T15:41:22.616Z,16.50
2017-05-01T15:43:51.080Z,16.60
2017-05-01T15:46:19.475Z,16.70
2017-05-01T15:48:47.710Z,16.60
2017-05-01T15:51:16.014Z,16.50
2017-05-01T15:53:44.353Z,16.50
2017-05-01T15:56:12.598Z,16.40
2017-05-01T15:58:40.875Z,16.40
2017-05-01T16:01:09.221Z,16.40
2017-05-01T16:03:37.457Z,16.30
2017-05-01T16:06:05.824Z,16.30
2017-05-01T16:08:34.089Z,16.40
2017-05-01T16:11:03.058Z,16.40
2017-05-01T16:13:31.468Z,16.40
2017-05-01T16:15:59.743Z,16.50
2017-05-01T16:18:27.985Z,16.50
2017-05-01T16:20:57.303Z,16.40
2017-05-01T16:23:25.653Z,16.30
2017-05-01T16:25:54.036Z,16.30
2017-05-01T16:28:22.266Z,16.30
2017-05-01T16:30:50.909Z,16.20
2017-05-01T16:33:19.163Z,16.30
2017-05-01T16:35:48.256Z,16.30
2017-05-01T16:38:16.647Z,16.40
2017-05-01T16:40:44.881Z,16.40
2017-05-01T16:43:13.236Z,16.30
2017-05-01T16:45:41.514Z,16.30
2017-05-01T16:48:09.793Z,16.40
2017-05-01T16:50:38.028Z,16.40
2017-05-01T16:53:06.331Z,16.20
2017-05-01T16:55:34.641Z,16.10
2017-05-01T16:58:02.915Z,16.10
2017-05-01T17:00:31.566Z,16.10
2017-05-01T17:03:00.129Z,16.10
2017-05-01T17:05:28.480Z,16.00
2017-05-01T17:07:56.757Z,16.10
2017-05-01T17:10:25.760Z,16.10
2017-05-01T17:12:54.037Z,16.10
2017-05-01T17:15:22.326Z,16.20
2017-05-01T17:17:50.678Z,16.20
2017-05-01T17:20:18.924Z,16.20
2017-05-01T17:22:47.228Z,16.30
2017-05-01T17:25:15.475Z,16.30
2017-05-01T17:27:43.759Z,16.20
2017-05-01T17:30:12.162Z,16.30
2017-05-01T17:32:40.408Z,16.20
2017-05-01T17:35:08.709Z,16.30
2017-05-01T17:37:37.019Z,16.20
2017-05-01T17:40:05.256Z,16.10
2017-05-01T17:42:34.253Z,16.00
2017-05-01T17:45:02.539Z,16.00
2017-05-01T17:47:30.775Z,16.00
2017-05-01T17:49:59.030Z,15.90
2017-05-01T17:52:27.587Z,15.90
2017-05-01T17:54:55.836Z,15.90
2017-05-01T17:57:24.112Z,15.80
2017-05-01T17:59:52.364Z,15.80
2017-05-01T18:02:20.864Z,15.90
2017-05-01T18:04:49.105Z,15.80
2017-05-01T18:07:17.368Z,15.80
2017-05-01T18:09:45.652Z,15.70
2017-05-01T18:12:13.916Z,15.60
2017-05-01T18:14:42.300Z,15.50
2017-05-01T18:17:10.636Z,15.50
2017-05-01T18:19:38.908Z,15.40
2017-05-01T18:22:07.178Z,15.50
2017-05-01T18:24:35.422Z,15.40
2017-05-01T18:27:03.697Z,15.40
2017-05-01T18:29:31.948Z,15.40
2017-05-01T18:32:00.269Z,15.30
2017-05-01T18:34:28.554Z,15.30
2017-05-01T18:36:56.821Z,15.30
2017-05-01T18:39:25.371Z,15.30
2017-05-01T18:41:54.350Z,15.10
2017-05-01T18:44:22.611Z,14.90
2017-05-01T18:46:50.841Z,14.70
2017-05-01T18:49:19.093Z,14.60
2017-05-01T18:51:48.105Z,14.40
2017-05-01T18:54:16.475Z,14.40
2017-05-01T18:56:44.764Z,14.40
2017-05-01T18:59:13.009Z,14.20
2017-05-01T19:01:41.232Z,14.10
2017-05-01T19:04:09.509Z,14.10
2017-05-01T19:06:37.754Z,14.10
2017-05-01T19:09:06.020Z,13.90
2017-05-01T19:11:34.287Z,13.90
2017-05-01T19:14:03.332Z,13.80
2017-05-01T19:16:31.588Z,13.70
2017-05-01T19:19:00.655Z,13.70
2017-05-01T19:21:29.653Z,13.60
2017-05-01T19:23:57.937Z,13.60
2017-05-01T19:26:26.168Z,13.60
2017-05-01T19:28:54.508Z,13.50
2017-05-01T19:31:22.771Z,13.40
2017-05-01T19:33:51.219Z,13.40
2017-05-01T19:36:19.492Z,13.20
2017-05-01T19:38:48.488Z,13.20
2017-05-01T19:41:17.480Z,13.10
2017-05-01T19:43:45.856Z,13.10
2017-05-01T19:46:14.101Z,13.10
2017-05-01T19:48:42.349Z,13.10
2017-05-01T19:51:10.600Z,13.10
2017-05-01T19:53:38.965Z,13.10
2017-05-01T19:56:07.205Z,13.10
2017-05-01T19:58:35.484Z,13.10
2017-05-01T20:01:03.704Z,13.00
2017-05-01T20:03:32.009Z,13.00
2017-05-01T20:06:00.349Z,13.10
2017-05-01T20:08:28.601Z,13.00
2017-05-01T20:10:56.929Z,13.00
2017-05-01T20:13:25.272Z,12.90
2017-05-01T20:15:53.549Z,13.00
2017-05-01T20:18:21.800Z,13.00
2017-05-01T20:20:50.856Z,13.00
2017-05-01T20:23:19.184Z,13.00
2017-05-01T20:25:47.457Z,13.00
2017-05-01T20:28:16.442Z,12.90
2017-05-01T20:30:45.435Z,12.90
2017-05-01T20:33:14.406Z,13.00
2017-05-01T20:35:42.662Z,13.00
2017-05-01T20:38:10.880Z,12.90
2017-05-01T20:40:39.147Z,12.90
2017-05-01T20:43:07.436Z,12.90
2017-05-01T20:45:35.736Z,13.00
2017-05-01T20:48:03.975Z,12.90
2017-05-01T20:50:32.974Z,12.80
2017-05-01T20:53:01.968Z,12.80
2017-05-01T20:55:30.939Z,12.80
2017-05-01T20:57:59.929Z,12.70
2017-05-01T21:00:28.157Z,12.70
2017-05-01T21:02:56.385Z,12.70
2017-05-01T21:05:25.391Z,12.70
2017-05-01T21:07:54.400Z,12.70
2017-05-01T21:10:22.640Z,12.70
2017-05-01T21:12:51.636Z,12.70
2017-05-01T21:15:20.596Z,12.70
2017-05-01T21:17:49.044Z,12.70
2017-05-01T21:20:17.383Z,12.70
2017-05-01T21:22:45.603Z,12.60
2017-05-01T21:25:13.829Z,12.60
2017-05-01T21:27:42.140Z,12.60
2017-05-01T21:30:10.360Z,12.60
2017-05-01T21:32:38.704Z,12.40
2017-05-01T21:35:06.979Z,12.40
2017-05-01T21:37:35.244Z,12.40
2017-05-01T21:40:03.508Z,12.40
2017-05-01T21:42:31.779Z,12.30
2017-05-01T21:45:00.025Z,12.20
2017-05-01T21:47:28.249Z,12.20
2017-05-01T21:49:56.610Z,12.20
2017-05-01T21:52:24.848Z,12.10
2017-05-01T21:54:53.076Z,12.10
2017-05-01T21:57:21.323Z,12.10
2017-05-01T21:59:49.584Z,12.00
2017-05-01T22:02:18.577Z,12.00
2017-05-01T22:04:47.570Z,12.00
2017-05-01T22:07:16.581Z,12.00
2017-05-01T22:09:44.872Z,12.00
2017-05-01T22:12:13.224Z,12.00
2017-05-01T22:14:42.221Z,11.90
2017-05-01T22:17:11.217Z,11.80
2017-05-01T22:19:39.463Z,11.90
2017-05-01T22:22:07.702Z,11.80
2017-05-01T22:24:35.934Z,11.80
2017-05-01T22:27:04.914Z,11.80
2017-05-01T22:29:33.902Z,11.80
2017-05-01T22:32:02.195Z,11.80
2017-05-01T22:34:31.231Z,11.70
2017-05-01T22:36:59.477Z,11.70
2017-05-01T22:39:27.758Z,11.70
2017-05-01T22:41:56.052Z,11.60
2017-05-01T22:44:24.310Z,11.60
2017-05-01T22:46:52.580Z,11.50
2017-05-01T22:49:20.829Z,11.40
2017-05-01T22:51:49.832Z,11.30
2017-05-01T22:54:18.800Z,11.20
2017-05-01T22:56:47.056Z,11.30
2017-05-01T22:59:15.383Z,11.20
2017-05-01T23:01:43.605Z,11.20
2017-05-01T23:04:11.849Z,11.10
2017-05-01T23:06:40.197Z,11.10
2017-05-01T23:09:09.172Z,11.00
2017-05-01T23:11:37.441Z,11.10
2017-05-01T23:14:05.679Z,11.00
2017-05-01T23:16:33.901Z,11.00
2017-05-01T23:19:02.213Z,10.90
2017-05-01T23:21:30.464Z,10.90
2017-05-01T23:23:59.474Z,10.70
2017-05-01T23:26:27.735Z,10.80
2017-05-01T23:28:56.728Z,10.60
2017-05-01T23:31:25.722Z,10.60
2017-05-01T23:33:54.757Z,10.50
2017-05-01T23:36:23.111Z,10.60
2017-05-01T23:38:51.336Z,10.50
2017-05-01T23:41:19.585Z,10.50
2017-05-01T23:43:47.813Z,10.50
2017-05-01T23:46:16.793Z,10.40
2017-05-01T23:48:45.783Z,10.40
2017-05-01T23:51:14.752Z,10.40
2017-05-01T23:53:42.976Z,10.40
2017-05-01T23:56:11.220Z,10.40
2017-05-01T23:58:39.454Z,10.40
